sensor_id;sensor_type;location;lat;lon;timestamp;P1;durP1;ratioP1;P2;durP2;ratioP2
78489;SDS011;67776;52.012;4.736;2023-09-18T00:01:57;39.77;;;19.77;;
78489;SDS011;67776;52.012;4.736;2023-09-18T00:04:23;40.00;;;19.63;;
78489;SDS011;67776;52.012;4.736;2023-09-18T00:06:48;42.47;;;20.23;;
78489;SDS011;67776;52.012;4.736;2023-09-18T00:09:13;37.47;;;19.33;;
78489;SDS011;67776;52.012;4.736;2023-09-18T00:11:39;38.27;;;19.43;;
78489;SDS011;67776;52.012;4.736;2023-09-18T00:14:05;40.30;;;20.40;;
78489;SDS011;67776;52.012;4.736;2023-09-18T00:16:31;36.63;;;18.67;;
78489;SDS011;67776;52.012;4.736;2023-09-18T00:18:57;35.77;;;18.43;;
78489;SDS011;67776;52.012;4.736;2023-09-18T00:21:23;36.23;;;19.10;;
78489;SDS011;67776;52.012;4.736;2023-09-18T00:23:50;37.85;;;19.38;;
78489;SDS011;67776;52.012;4.736;2023-09-18T00:26:16;34.28;;;18.48;;
78489;SDS011;67776;52.012;4.736;2023-09-18T00:28:41;36.87;;;19.40;;
78489;SDS011;67776;52.012;4.736;2023-09-18T00:31:07;37.60;;;19.60;;
78489;SDS011;67776;52.012;4.736;2023-09-18T00:33:32;42.08;;;20.48;;
78489;SDS011;67776;52.012;4.736;2023-09-18T00:35:57;40.27;;;19.23;;
78489;SDS011;67776;52.012;4.736;2023-09-18T00:38:23;40.37;;;20.30;;
78489;SDS011;67776;52.012;4.736;2023-09-18T00:40:48;36.70;;;18.90;;
78489;SDS011;67776;52.012;4.736;2023-09-18T00:43:13;35.93;;;19.47;;
78489;SDS011;67776;52.012;4.736;2023-09-18T00:45:40;38.47;;;19.27;;
78489;SDS011;67776;52.012;4.736;2023-09-18T00:48:07;35.20;;;18.45;;
78489;SDS011;67776;52.012;4.736;2023-09-18T00:50:33;35.63;;;19.40;;
78489;SDS011;67776;52.012;4.736;2023-09-18T00:52:59;40.20;;;19.17;;
78489;SDS011;67776;52.012;4.736;2023-09-18T00:55:26;34.92;;;19.17;;
78489;SDS011;67776;52.012;4.736;2023-09-18T00:57:54;35.50;;;18.48;;
78489;SDS011;67776;52.012;4.736;2023-09-18T01:00:20;38.40;;;19.43;;
78489;SDS011;67776;52.012;4.736;2023-09-18T01:02:47;39.08;;;20.48;;
78489;SDS011;67776;52.012;4.736;2023-09-18T01:05:12;35.67;;;19.20;;
78489;SDS011;67776;52.012;4.736;2023-09-18T01:07:38;39.55;;;20.33;;
78489;SDS011;67776;52.012;4.736;2023-09-18T01:10:04;40.60;;;20.30;;
78489;SDS011;67776;52.012;4.736;2023-09-18T01:17:34;41.28;;;19.60;;
78489;SDS011;67776;52.012;4.736;2023-09-18T01:20:01;37.60;;;19.07;;
78489;SDS011;67776;52.012;4.736;2023-09-18T01:22:30;38.45;;;19.48;;
78489;SDS011;67776;52.012;4.736;2023-09-18T01:24:57;38.22;;;19.08;;
78489;SDS011;67776;52.012;4.736;2023-09-18T01:27:22;36.13;;;18.90;;
78489;SDS011;67776;52.012;4.736;2023-09-18T01:29:48;35.28;;;20.23;;
78489;SDS011;67776;52.012;4.736;2023-09-18T01:32:14;41.37;;;20.50;;
78489;SDS011;67776;52.012;4.736;2023-09-18T01:34:45;40.95;;;21.20;;
78489;SDS011;67776;52.012;4.736;2023-09-18T01:37:12;44.35;;;21.17;;
78489;SDS011;67776;52.012;4.736;2023-09-18T01:39:39;41.25;;;20.25;;
78489;SDS011;67776;52.012;4.736;2023-09-18T01:42:04;41.27;;;19.70;;
78489;SDS011;67776;52.012;4.736;2023-09-18T01:44:31;42.63;;;20.65;;
78489;SDS011;67776;52.012;4.736;2023-09-18T01:46:58;39.00;;;19.65;;
78489;SDS011;67776;52.012;4.736;2023-09-18T01:51:53;36.03;;;19.07;;
78489;SDS011;67776;52.012;4.736;2023-09-18T01:54:18;36.85;;;18.67;;
78489;SDS011;67776;52.012;4.736;2023-09-18T01:56:44;37.90;;;19.13;;
78489;SDS011;67776;52.012;4.736;2023-09-18T01:59:09;35.00;;;18.27;;
78489;SDS011;67776;52.012;4.736;2023-09-18T02:01:34;36.37;;;18.70;;
78489;SDS011;67776;52.012;4.736;2023-09-18T02:04:00;37.07;;;18.93;;
78489;SDS011;67776;52.012;4.736;2023-09-18T02:06:25;34.03;;;17.90;;
78489;SDS011;67776;52.012;4.736;2023-09-18T02:08:50;38.87;;;18.83;;
78489;SDS011;67776;52.012;4.736;2023-09-18T02:11:16;37.83;;;18.90;;
78489;SDS011;67776;52.012;4.736;2023-09-18T02:13:41;38.37;;;20.13;;
78489;SDS011;67776;52.012;4.736;2023-09-18T02:16:07;37.23;;;19.63;;
78489;SDS011;67776;52.012;4.736;2023-09-18T02:18:32;37.05;;;19.10;;
78489;SDS011;67776;52.012;4.736;2023-09-18T02:20:58;36.30;;;18.53;;
78489;SDS011;67776;52.012;4.736;2023-09-18T02:23:23;37.50;;;19.70;;
78489;SDS011;67776;52.012;4.736;2023-09-18T02:25:55;36.43;;;19.47;;
78489;SDS011;67776;52.012;4.736;2023-09-18T02:28:23;39.40;;;20.45;;
78489;SDS011;67776;52.012;4.736;2023-09-18T02:30:49;39.00;;;19.08;;
78489;SDS011;67776;52.012;4.736;2023-09-18T02:33:15;38.23;;;19.77;;
78489;SDS011;67776;52.012;4.736;2023-09-18T02:35:40;35.92;;;19.65;;
78489;SDS011;67776;52.012;4.736;2023-09-18T02:38:06;41.20;;;19.57;;
78489;SDS011;67776;52.012;4.736;2023-09-18T02:40:31;42.27;;;20.57;;
78489;SDS011;67776;52.012;4.736;2023-09-18T02:42:57;38.30;;;19.13;;
78489;SDS011;67776;52.012;4.736;2023-09-18T02:45:22;39.07;;;20.17;;
78489;SDS011;67776;52.012;4.736;2023-09-18T02:47:47;40.10;;;20.27;;
78489;SDS011;67776;52.012;4.736;2023-09-18T02:50:13;35.90;;;19.00;;
78489;SDS011;67776;52.012;4.736;2023-09-18T02:52:38;33.17;;;18.43;;
78489;SDS011;67776;52.012;4.736;2023-09-18T02:55:04;34.27;;;18.77;;
78489;SDS011;67776;52.012;4.736;2023-09-18T02:57:30;36.30;;;19.67;;
78489;SDS011;67776;52.012;4.736;2023-09-18T02:59:55;34.60;;;19.57;;
78489;SDS011;67776;52.012;4.736;2023-09-18T03:02:20;33.63;;;19.50;;
78489;SDS011;67776;52.012;4.736;2023-09-18T03:04:45;39.27;;;19.60;;
78489;SDS011;67776;52.012;4.736;2023-09-18T03:07:14;35.00;;;18.73;;
78489;SDS011;67776;52.012;4.736;2023-09-18T03:09:41;39.67;;;19.40;;
78489;SDS011;67776;52.012;4.736;2023-09-18T03:12:06;39.33;;;20.48;;
78489;SDS011;67776;52.012;4.736;2023-09-18T03:14:32;38.40;;;20.03;;
78489;SDS011;67776;52.012;4.736;2023-09-18T03:16:57;38.57;;;19.57;;
78489;SDS011;67776;52.012;4.736;2023-09-18T03:19:22;38.77;;;20.17;;
78489;SDS011;67776;52.012;4.736;2023-09-18T03:21:49;40.83;;;20.58;;
78489;SDS011;67776;52.012;4.736;2023-09-18T03:24:15;38.20;;;20.13;;
78489;SDS011;67776;52.012;4.736;2023-09-18T03:26:40;47.20;;;21.42;;
78489;SDS011;67776;52.012;4.736;2023-09-18T03:29:05;41.40;;;20.47;;
78489;SDS011;67776;52.012;4.736;2023-09-18T03:31:30;43.63;;;21.83;;
78489;SDS011;67776;52.012;4.736;2023-09-18T03:33:56;40.47;;;20.37;;
78489;SDS011;67776;52.012;4.736;2023-09-18T03:36:22;42.13;;;20.87;;
78489;SDS011;67776;52.012;4.736;2023-09-18T03:38:50;50.92;;;22.20;;
78489;SDS011;67776;52.012;4.736;2023-09-18T03:41:15;42.40;;;20.77;;
78489;SDS011;67776;52.012;4.736;2023-09-18T03:43:41;41.23;;;19.77;;
78489;SDS011;67776;52.012;4.736;2023-09-18T03:46:06;40.47;;;19.30;;
78489;SDS011;67776;52.012;4.736;2023-09-18T03:48:32;39.60;;;19.35;;
78489;SDS011;67776;52.012;4.736;2023-09-18T03:51:03;41.60;;;19.48;;
78489;SDS011;67776;52.012;4.736;2023-09-18T03:53:29;36.20;;;18.17;;
78489;SDS011;67776;52.012;4.736;2023-09-18T03:55:54;35.93;;;17.93;;
78489;SDS011;67776;52.012;4.736;2023-09-18T03:58:20;30.67;;;15.57;;
78489;SDS011;67776;52.012;4.736;2023-09-18T04:00:45;30.37;;;15.67;;
78489;SDS011;67776;52.012;4.736;2023-09-18T04:03:11;28.97;;;14.13;;
78489;SDS011;67776;52.012;4.736;2023-09-18T04:05:36;27.97;;;14.50;;
78489;SDS011;67776;52.012;4.736;2023-09-18T04:08:01;28.63;;;14.35;;
78489;SDS011;67776;52.012;4.736;2023-09-18T04:10:27;30.20;;;14.30;;
78489;SDS011;67776;52.012;4.736;2023-09-18T04:12:52;26.10;;;13.97;;
78489;SDS011;67776;52.012;4.736;2023-09-18T04:15:17;29.87;;;13.07;;
78489;SDS011;67776;52.012;4.736;2023-09-18T04:17:43;23.65;;;11.65;;
78489;SDS011;67776;52.012;4.736;2023-09-18T04:20:09;21.90;;;10.77;;
78489;SDS011;67776;52.012;4.736;2023-09-18T04:22:36;18.73;;;9.30;;
78489;SDS011;67776;52.012;4.736;2023-09-18T04:25:01;20.13;;;10.32;;
78489;SDS011;67776;52.012;4.736;2023-09-18T04:27:30;17.73;;;9.47;;
78489;SDS011;67776;52.012;4.736;2023-09-18T04:29:55;19.23;;;9.63;;
78489;SDS011;67776;52.012;4.736;2023-09-18T04:32:21;21.27;;;9.63;;
78489;SDS011;67776;52.012;4.736;2023-09-18T04:34:46;19.38;;;9.50;;
78489;SDS011;67776;52.012;4.736;2023-09-18T04:37:12;19.43;;;9.03;;
78489;SDS011;67776;52.012;4.736;2023-09-18T04:39:37;16.10;;;8.13;;
78489;SDS011;67776;52.012;4.736;2023-09-18T04:42:02;19.80;;;8.30;;
78489;SDS011;67776;52.012;4.736;2023-09-18T04:44:31;23.70;;;8.48;;
78489;SDS011;67776;52.012;4.736;2023-09-18T04:46:56;17.03;;;8.23;;
78489;SDS011;67776;52.012;4.736;2023-09-18T04:49:22;16.00;;;7.75;;
78489;SDS011;67776;52.012;4.736;2023-09-18T04:51:48;20.00;;;8.53;;
78489;SDS011;67776;52.012;4.736;2023-09-18T04:54:14;16.75;;;8.07;;
78489;SDS011;67776;52.012;4.736;2023-09-18T04:56:40;16.03;;;8.37;;
78489;SDS011;67776;52.012;4.736;2023-09-18T04:59:06;15.45;;;8.30;;
78489;SDS011;67776;52.012;4.736;2023-09-18T05:01:31;18.30;;;7.23;;
78489;SDS011;67776;52.012;4.736;2023-09-18T05:03:57;19.73;;;7.87;;
78489;SDS011;67776;52.012;4.736;2023-09-18T05:06:22;18.00;;;7.72;;
78489;SDS011;67776;52.012;4.736;2023-09-18T05:08:48;14.23;;;7.87;;
78489;SDS011;67776;52.012;4.736;2023-09-18T05:11:13;17.13;;;7.93;;
78489;SDS011;67776;52.012;4.736;2023-09-18T05:13:38;17.63;;;8.40;;
78489;SDS011;67776;52.012;4.736;2023-09-18T05:16:04;15.47;;;8.20;;
78489;SDS011;67776;52.012;4.736;2023-09-18T05:18:29;15.07;;;7.95;;
78489;SDS011;67776;52.012;4.736;2023-09-18T05:20:54;17.27;;;8.10;;
78489;SDS011;67776;52.012;4.736;2023-09-18T05:23:20;15.87;;;7.50;;
78489;SDS011;67776;52.012;4.736;2023-09-18T05:25:45;16.50;;;8.00;;
78489;SDS011;67776;52.012;4.736;2023-09-18T05:28:10;19.27;;;7.83;;
78489;SDS011;67776;52.012;4.736;2023-09-18T05:30:36;20.23;;;8.20;;
78489;SDS011;67776;52.012;4.736;2023-09-18T05:33:06;18.08;;;8.63;;
78489;SDS011;67776;52.012;4.736;2023-09-18T05:35:33;17.55;;;8.25;;
78489;SDS011;67776;52.012;4.736;2023-09-18T05:38:01;19.42;;;8.73;;
78489;SDS011;67776;52.012;4.736;2023-09-18T05:40:27;16.97;;;8.80;;
78489;SDS011;67776;52.012;4.736;2023-09-18T05:42:53;16.38;;;8.07;;
78489;SDS011;67776;52.012;4.736;2023-09-18T05:45:19;17.07;;;8.77;;
78489;SDS011;67776;52.012;4.736;2023-09-18T05:47:45;16.77;;;8.43;;
78489;SDS011;67776;52.012;4.736;2023-09-18T05:50:11;17.03;;;8.43;;
78489;SDS011;67776;52.012;4.736;2023-09-18T05:52:40;19.58;;;7.95;;
78489;SDS011;67776;52.012;4.736;2023-09-18T05:55:05;18.27;;;7.83;;
78489;SDS011;67776;52.012;4.736;2023-09-18T05:57:34;16.52;;;8.02;;
78489;SDS011;67776;52.012;4.736;2023-09-18T06:00:00;16.55;;;8.23;;
78489;SDS011;67776;52.012;4.736;2023-09-18T06:02:25;16.13;;;7.20;;
78489;SDS011;67776;52.012;4.736;2023-09-18T06:04:57;19.53;;;7.90;;
78489;SDS011;67776;52.012;4.736;2023-09-18T06:07:31;21.05;;;8.30;;
78489;SDS011;67776;52.012;4.736;2023-09-18T06:09:57;20.03;;;8.47;;
78489;SDS011;67776;52.012;4.736;2023-09-18T06:12:22;20.27;;;8.30;;
78489;SDS011;67776;52.012;4.736;2023-09-18T06:14:48;20.87;;;8.37;;
78489;SDS011;67776;52.012;4.736;2023-09-18T06:17:14;19.27;;;8.20;;
78489;SDS011;67776;52.012;4.736;2023-09-18T06:19:40;18.35;;;7.95;;
78489;SDS011;67776;52.012;4.736;2023-09-18T06:22:06;22.23;;;8.77;;
78489;SDS011;67776;52.012;4.736;2023-09-18T06:24:33;15.40;;;7.77;;
78489;SDS011;67776;52.012;4.736;2023-09-18T06:27:02;19.52;;;8.82;;
78489;SDS011;67776;52.012;4.736;2023-09-18T06:29:29;17.60;;;8.30;;
78489;SDS011;67776;52.012;4.736;2023-09-18T06:31:55;17.23;;;7.90;;
78489;SDS011;67776;52.012;4.736;2023-09-18T06:34:20;17.80;;;8.40;;
78489;SDS011;67776;52.012;4.736;2023-09-18T06:36:46;15.83;;;8.07;;
78489;SDS011;67776;52.012;4.736;2023-09-18T06:39:11;16.67;;;7.93;;
78489;SDS011;67776;52.012;4.736;2023-09-18T06:41:36;18.23;;;7.87;;
78489;SDS011;67776;52.012;4.736;2023-09-18T06:44:02;19.60;;;7.30;;
78489;SDS011;67776;52.012;4.736;2023-09-18T06:46:31;14.82;;;7.22;;
78489;SDS011;67776;52.012;4.736;2023-09-18T06:48:57;15.70;;;7.18;;
78489;SDS011;67776;52.012;4.736;2023-09-18T06:51:22;16.33;;;7.77;;
78489;SDS011;67776;52.012;4.736;2023-09-18T06:53:48;15.57;;;6.95;;
78489;SDS011;67776;52.012;4.736;2023-09-18T06:56:13;16.00;;;7.03;;
78489;SDS011;67776;52.012;4.736;2023-09-18T06:58:39;14.80;;;6.97;;
78489;SDS011;67776;52.012;4.736;2023-09-18T07:01:04;15.57;;;6.60;;
78489;SDS011;67776;52.012;4.736;2023-09-18T07:03:32;14.10;;;6.85;;
78489;SDS011;67776;52.012;4.736;2023-09-18T07:05:59;12.93;;;6.10;;
78489;SDS011;67776;52.012;4.736;2023-09-18T07:08:25;12.63;;;5.90;;
78489;SDS011;67776;52.012;4.736;2023-09-18T07:10:50;12.87;;;5.80;;
78489;SDS011;67776;52.012;4.736;2023-09-18T07:13:16;11.10;;;5.70;;
78489;SDS011;67776;52.012;4.736;2023-09-18T07:15:41;12.95;;;5.45;;
78489;SDS011;67776;52.012;4.736;2023-09-18T07:18:07;13.70;;;5.43;;
78489;SDS011;67776;52.012;4.736;2023-09-18T07:20:32;14.90;;;5.33;;
78489;SDS011;67776;52.012;4.736;2023-09-18T07:22:57;10.20;;;4.70;;
78489;SDS011;67776;52.012;4.736;2023-09-18T07:25:23;10.33;;;5.03;;
78489;SDS011;67776;52.012;4.736;2023-09-18T07:27:48;11.10;;;5.00;;
78489;SDS011;67776;52.012;4.736;2023-09-18T07:30:14;10.37;;;5.10;;
78489;SDS011;67776;52.012;4.736;2023-09-18T07:32:41;10.20;;;4.65;;
78489;SDS011;67776;52.012;4.736;2023-09-18T07:35:07;11.50;;;4.70;;
78489;SDS011;67776;52.012;4.736;2023-09-18T07:37:34;12.05;;;5.43;;
78489;SDS011;67776;52.012;4.736;2023-09-18T07:40:00;11.88;;;4.70;;
78489;SDS011;67776;52.012;4.736;2023-09-18T07:42:27;13.37;;;4.93;;
78489;SDS011;67776;52.012;4.736;2023-09-18T07:44:52;11.18;;;5.00;;
78489;SDS011;67776;52.012;4.736;2023-09-18T07:47:18;11.90;;;5.50;;
78489;SDS011;67776;52.012;4.736;2023-09-18T07:49:44;10.95;;;4.93;;
78489;SDS011;67776;52.012;4.736;2023-09-18T07:52:09;10.53;;;4.73;;
78489;SDS011;67776;52.012;4.736;2023-09-18T07:54:34;12.17;;;5.27;;
78489;SDS011;67776;52.012;4.736;2023-09-18T07:57:00;12.80;;;5.00;;
78489;SDS011;67776;52.012;4.736;2023-09-18T07:59:26;13.52;;;6.15;;
78489;SDS011;67776;52.012;4.736;2023-09-18T08:01:52;10.02;;;5.07;;
78489;SDS011;67776;52.012;4.736;2023-09-18T08:04:17;9.83;;;4.90;;
78489;SDS011;67776;52.012;4.736;2023-09-18T08:06:43;12.27;;;5.30;;
78489;SDS011;67776;52.012;4.736;2023-09-18T08:09:08;11.20;;;5.37;;
78489;SDS011;67776;52.012;4.736;2023-09-18T08:11:40;11.73;;;6.15;;
78489;SDS011;67776;52.012;4.736;2023-09-18T08:14:07;13.55;;;5.95;;
78489;SDS011;67776;52.012;4.736;2023-09-18T08:16:33;13.63;;;5.88;;
78489;SDS011;67776;52.012;4.736;2023-09-18T08:19:00;12.23;;;5.90;;
78489;SDS011;67776;52.012;4.736;2023-09-18T08:21:26;12.32;;;6.38;;
78489;SDS011;67776;52.012;4.736;2023-09-18T08:23:54;14.93;;;7.10;;
78489;SDS011;67776;52.012;4.736;2023-09-18T08:26:19;12.65;;;6.55;;
78489;SDS011;67776;52.012;4.736;2023-09-18T08:28:45;13.50;;;6.63;;
78489;SDS011;67776;52.012;4.736;2023-09-18T08:31:11;12.47;;;6.93;;
78489;SDS011;67776;52.012;4.736;2023-09-18T08:33:36;13.00;;;6.70;;
78489;SDS011;67776;52.012;4.736;2023-09-18T08:36:02;14.67;;;7.23;;
78489;SDS011;67776;52.012;4.736;2023-09-18T08:38:27;12.45;;;7.10;;
78489;SDS011;67776;52.012;4.736;2023-09-18T08:40:57;12.43;;;6.80;;
78489;SDS011;67776;52.012;4.736;2023-09-18T08:43:22;11.73;;;6.70;;
78489;SDS011;67776;52.012;4.736;2023-09-18T08:48:17;11.20;;;6.68;;
78489;SDS011;67776;52.012;4.736;2023-09-18T08:50:43;11.55;;;6.70;;
78489;SDS011;67776;52.012;4.736;2023-09-18T08:53:10;11.37;;;6.53;;
78489;SDS011;67776;52.012;4.736;2023-09-18T08:55:35;10.63;;;6.63;;
78489;SDS011;67776;52.012;4.736;2023-09-18T08:58:01;11.97;;;6.27;;
78489;SDS011;67776;52.012;4.736;2023-09-18T09:00:26;9.67;;;5.77;;
78489;SDS011;67776;52.012;4.736;2023-09-18T09:02:52;11.93;;;5.78;;
78489;SDS011;67776;52.012;4.736;2023-09-18T09:05:19;11.50;;;5.88;;
78489;SDS011;67776;52.012;4.736;2023-09-18T09:07:48;9.77;;;5.63;;
78489;SDS011;67776;52.012;4.736;2023-09-18T09:10:14;11.65;;;5.88;;
78489;SDS011;67776;52.012;4.736;2023-09-18T09:12:47;10.07;;;5.53;;
78489;SDS011;67776;52.012;4.736;2023-09-18T09:15:19;11.32;;;6.57;;
78489;SDS011;67776;52.012;4.736;2023-09-18T09:17:48;10.82;;;6.50;;
78489;SDS011;67776;52.012;4.736;2023-09-18T09:20:14;12.02;;;6.38;;
78489;SDS011;67776;52.012;4.736;2023-09-18T09:22:41;13.20;;;6.50;;
78489;SDS011;67776;52.012;4.736;2023-09-18T09:25:28;13.63;;;6.63;;
78489;SDS011;67776;52.012;4.736;2023-09-18T09:27:56;13.35;;;6.65;;
78489;SDS011;67776;52.012;4.736;2023-09-18T09:30:25;11.13;;;6.53;;
78489;SDS011;67776;52.012;4.736;2023-09-18T09:32:52;11.65;;;6.32;;
78489;SDS011;67776;52.012;4.736;2023-09-18T09:35:22;11.98;;;6.75;;
78489;SDS011;67776;52.012;4.736;2023-09-18T09:37:52;10.75;;;5.70;;
78489;SDS011;67776;52.012;4.736;2023-09-18T09:40:21;9.05;;;5.30;;
78489;SDS011;67776;52.012;4.736;2023-09-18T09:42:48;9.80;;;4.77;;
78489;SDS011;67776;52.012;4.736;2023-09-18T09:45:16;8.48;;;4.72;;
78489;SDS011;67776;52.012;4.736;2023-09-18T09:47:42;7.65;;;5.07;;
78489;SDS011;67776;52.012;4.736;2023-09-18T09:50:09;10.00;;;4.90;;
78489;SDS011;67776;52.012;4.736;2023-09-18T09:52:36;10.75;;;5.13;;
78489;SDS011;67776;52.012;4.736;2023-09-18T09:55:17;8.88;;;4.85;;
78489;SDS011;67776;52.012;4.736;2023-09-18T09:57:50;8.20;;;4.85;;
78489;SDS011;67776;52.012;4.736;2023-09-18T10:00:17;9.35;;;5.20;;
78489;SDS011;67776;52.012;4.736;2023-09-18T10:03:02;9.03;;;5.27;;
78489;SDS011;67776;52.012;4.736;2023-09-18T10:05:34;11.05;;;5.35;;
78489;SDS011;67776;52.012;4.736;2023-09-18T10:08:11;9.88;;;5.00;;
78489;SDS011;67776;52.012;4.736;2023-09-18T10:10:40;10.68;;;5.07;;
78489;SDS011;67776;52.012;4.736;2023-09-18T10:13:15;7.88;;;4.75;;
78489;SDS011;67776;52.012;4.736;2023-09-18T10:15:46;8.73;;;4.73;;
78489;SDS011;67776;52.012;4.736;2023-09-18T10:20:53;8.05;;;5.32;;
78489;SDS011;67776;52.012;4.736;2023-09-18T10:23:38;9.07;;;4.63;;
78489;SDS011;67776;52.012;4.736;2023-09-18T10:26:23;8.80;;;5.15;;
78489;SDS011;67776;52.012;4.736;2023-09-18T10:28:52;9.03;;;4.93;;
78489;SDS011;67776;52.012;4.736;2023-09-18T10:31:21;9.15;;;5.38;;
78489;SDS011;67776;52.012;4.736;2023-09-18T10:33:47;10.98;;;5.38;;
78489;SDS011;67776;52.012;4.736;2023-09-18T10:36:13;7.97;;;4.85;;
78489;SDS011;67776;52.012;4.736;2023-09-18T10:38:42;9.55;;;4.70;;
78489;SDS011;67776;52.012;4.736;2023-09-18T10:41:14;8.50;;;4.87;;
78489;SDS011;67776;52.012;4.736;2023-09-18T10:43:42;9.30;;;4.93;;
78489;SDS011;67776;52.012;4.736;2023-09-18T10:46:08;7.47;;;4.47;;
78489;SDS011;67776;52.012;4.736;2023-09-18T10:48:34;10.43;;;4.70;;
78489;SDS011;67776;52.012;4.736;2023-09-18T10:51:00;8.23;;;4.70;;
78489;SDS011;67776;52.012;4.736;2023-09-18T10:53:31;8.45;;;4.70;;
78489;SDS011;67776;52.012;4.736;2023-09-18T10:55:57;8.70;;;4.40;;
78489;SDS011;67776;52.012;4.736;2023-09-18T10:58:23;9.53;;;4.77;;
78489;SDS011;67776;52.012;4.736;2023-09-18T11:00:50;6.78;;;4.57;;
78489;SDS011;67776;52.012;4.736;2023-09-18T11:03:16;9.88;;;4.32;;
78489;SDS011;67776;52.012;4.736;2023-09-18T11:05:46;7.57;;;4.60;;
78489;SDS011;67776;52.012;4.736;2023-09-18T11:08:25;8.37;;;4.57;;
78489;SDS011;67776;52.012;4.736;2023-09-18T11:10:55;8.52;;;4.68;;
78489;SDS011;67776;52.012;4.736;2023-09-18T11:13:35;8.00;;;4.60;;
78489;SDS011;67776;52.012;4.736;2023-09-18T11:21:27;7.73;;;4.90;;
78489;SDS011;67776;52.012;4.736;2023-09-18T11:24:01;8.15;;;5.35;;
78489;SDS011;67776;52.012;4.736;2023-09-18T11:26:32;8.90;;;4.75;;
78489;SDS011;67776;52.012;4.736;2023-09-18T11:29:06;8.35;;;4.47;;
78489;SDS011;67776;52.012;4.736;2023-09-18T11:31:47;9.23;;;4.80;;
78489;SDS011;67776;52.012;4.736;2023-09-18T11:34:28;8.40;;;5.00;;
78489;SDS011;67776;52.012;4.736;2023-09-18T11:36:58;9.20;;;4.93;;
78489;SDS011;67776;52.012;4.736;2023-09-18T11:42:12;7.82;;;4.90;;
78489;SDS011;67776;52.012;4.736;2023-09-18T11:44:40;9.60;;;4.60;;
78489;SDS011;67776;52.012;4.736;2023-09-18T11:47:10;6.60;;;4.22;;
78489;SDS011;67776;52.012;4.736;2023-09-18T11:49:41;7.45;;;4.07;;
78489;SDS011;67776;52.012;4.736;2023-09-18T11:52:14;8.00;;;4.50;;
78489;SDS011;67776;52.012;4.736;2023-09-18T11:54:41;7.85;;;4.20;;
78489;SDS011;67776;52.012;4.736;2023-09-18T11:57:06;7.00;;;4.10;;
78489;SDS011;67776;52.012;4.736;2023-09-18T11:59:33;7.85;;;4.18;;
78489;SDS011;67776;52.012;4.736;2023-09-18T12:02:00;6.30;;;3.70;;
78489;SDS011;67776;52.012;4.736;2023-09-18T12:04:30;7.57;;;3.95;;
78489;SDS011;67776;52.012;4.736;2023-09-18T12:06:58;7.47;;;3.50;;
78489;SDS011;67776;52.012;4.736;2023-09-18T12:09:26;7.15;;;3.78;;
78489;SDS011;67776;52.012;4.736;2023-09-18T12:11:52;6.53;;;3.88;;
78489;SDS011;67776;52.012;4.736;2023-09-18T12:14:19;8.50;;;4.00;;
78489;SDS011;67776;52.012;4.736;2023-09-18T12:16:45;8.23;;;4.40;;
78489;SDS011;67776;52.012;4.736;2023-09-18T12:19:15;10.03;;;4.07;;
78489;SDS011;67776;52.012;4.736;2023-09-18T12:21:42;7.20;;;4.13;;
78489;SDS011;67776;52.012;4.736;2023-09-18T12:24:30;10.10;;;4.40;;
78489;SDS011;67776;52.012;4.736;2023-09-18T12:26:55;7.22;;;3.92;;
78489;SDS011;67776;52.012;4.736;2023-09-18T12:29:22;6.70;;;3.83;;
78489;SDS011;67776;52.012;4.736;2023-09-18T12:31:48;8.90;;;4.20;;
78489;SDS011;67776;52.012;4.736;2023-09-18T12:34:18;6.43;;;3.53;;
78489;SDS011;67776;52.012;4.736;2023-09-18T12:36:48;6.63;;;3.92;;
78489;SDS011;67776;52.012;4.736;2023-09-18T12:39:14;7.07;;;3.63;;
78489;SDS011;67776;52.012;4.736;2023-09-18T12:41:43;7.65;;;3.80;;
78489;SDS011;67776;52.012;4.736;2023-09-18T12:44:09;7.97;;;4.30;;
78489;SDS011;67776;52.012;4.736;2023-09-18T12:46:35;7.03;;;4.17;;
78489;SDS011;67776;52.012;4.736;2023-09-18T12:51:54;13.73;;;4.07;;
78489;SDS011;67776;52.012;4.736;2023-09-18T12:54:39;6.85;;;3.95;;
78489;SDS011;67776;52.012;4.736;2023-09-18T12:57:10;6.38;;;3.60;;
78489;SDS011;67776;52.012;4.736;2023-09-18T12:59:39;6.40;;;3.70;;
78489;SDS011;67776;52.012;4.736;2023-09-18T13:02:05;6.15;;;3.50;;
78489;SDS011;67776;52.012;4.736;2023-09-18T13:04:32;7.40;;;3.53;;
78489;SDS011;67776;52.012;4.736;2023-09-18T13:09:34;5.72;;;3.30;;
78489;SDS011;67776;52.012;4.736;2023-09-18T13:12:03;7.13;;;3.60;;
78489;SDS011;67776;52.012;4.736;2023-09-18T13:14:29;7.20;;;3.33;;
78489;SDS011;67776;52.012;4.736;2023-09-18T13:17:01;6.77;;;3.37;;
78489;SDS011;67776;52.012;4.736;2023-09-18T13:19:29;5.82;;;3.40;;
78489;SDS011;67776;52.012;4.736;2023-09-18T13:21:55;5.97;;;3.27;;
78489;SDS011;67776;52.012;4.736;2023-09-18T13:24:24;6.00;;;3.10;;
78489;SDS011;67776;52.012;4.736;2023-09-18T13:26:53;8.83;;;3.30;;
78489;SDS011;67776;52.012;4.736;2023-09-18T13:29:19;10.70;;;3.00;;
78489;SDS011;67776;52.012;4.736;2023-09-18T13:31:45;9.30;;;3.30;;
78489;SDS011;67776;52.012;4.736;2023-09-18T13:34:11;6.82;;;3.00;;
78489;SDS011;67776;52.012;4.736;2023-09-18T13:36:36;7.27;;;2.83;;
78489;SDS011;67776;52.012;4.736;2023-09-18T13:39:02;6.73;;;3.07;;
78489;SDS011;67776;52.012;4.736;2023-09-18T13:41:28;7.07;;;3.67;;
78489;SDS011;67776;52.012;4.736;2023-09-18T13:43:53;6.70;;;3.53;;
78489;SDS011;67776;52.012;4.736;2023-09-18T13:46:20;9.05;;;4.03;;
78489;SDS011;67776;52.012;4.736;2023-09-18T13:48:46;8.33;;;4.00;;
78489;SDS011;67776;52.012;4.736;2023-09-18T13:51:13;8.88;;;4.05;;
78489;SDS011;67776;52.012;4.736;2023-09-18T13:53:38;9.32;;;4.65;;
78489;SDS011;67776;52.012;4.736;2023-09-18T13:56:06;7.88;;;4.15;;
78489;SDS011;67776;52.012;4.736;2023-09-18T13:58:31;10.30;;;4.00;;
78489;SDS011;67776;52.012;4.736;2023-09-18T14:00:56;7.37;;;3.77;;
78489;SDS011;67776;52.012;4.736;2023-09-18T14:03:22;8.65;;;3.75;;
78489;SDS011;67776;52.012;4.736;2023-09-18T14:05:48;6.60;;;3.43;;
78489;SDS011;67776;52.012;4.736;2023-09-18T14:08:15;8.57;;;3.72;;
78489;SDS011;67776;52.012;4.736;2023-09-18T14:10:42;7.18;;;3.45;;
78489;SDS011;67776;52.012;4.736;2023-09-18T14:13:08;7.80;;;3.70;;
78489;SDS011;67776;52.012;4.736;2023-09-18T14:15:33;8.77;;;3.47;;
78489;SDS011;67776;52.012;4.736;2023-09-18T14:17:58;9.67;;;3.60;;
78489;SDS011;67776;52.012;4.736;2023-09-18T14:20:24;10.17;;;3.80;;
78489;SDS011;67776;52.012;4.736;2023-09-18T14:22:49;8.77;;;3.90;;
78489;SDS011;67776;52.012;4.736;2023-09-18T14:25:15;11.77;;;3.90;;
78489;SDS011;67776;52.012;4.736;2023-09-18T14:27:41;8.55;;;4.07;;
78489;SDS011;67776;52.012;4.736;2023-09-18T14:30:07;8.60;;;4.13;;
78489;SDS011;67776;52.012;4.736;2023-09-18T14:32:33;8.03;;;4.40;;
78489;SDS011;67776;52.012;4.736;2023-09-18T14:35:00;9.32;;;4.50;;
78489;SDS011;67776;52.012;4.736;2023-09-18T14:37:27;11.50;;;4.13;;
78489;SDS011;67776;52.012;4.736;2023-09-18T14:39:53;6.20;;;2.80;;
78489;SDS011;67776;52.012;4.736;2023-09-18T14:42:19;5.97;;;2.23;;
78489;SDS011;67776;52.012;4.736;2023-09-18T14:44:44;7.67;;;1.70;;
78489;SDS011;67776;52.012;4.736;2023-09-18T14:47:10;7.30;;;2.27;;
78489;SDS011;67776;52.012;4.736;2023-09-18T14:49:36;6.67;;;3.00;;
78489;SDS011;67776;52.012;4.736;2023-09-18T14:52:02;8.40;;;2.77;;
78489;SDS011;67776;52.012;4.736;2023-09-18T14:54:28;5.93;;;1.88;;
78489;SDS011;67776;52.012;4.736;2023-09-18T14:56:53;5.00;;;1.70;;
78489;SDS011;67776;52.012;4.736;2023-09-18T14:59:19;5.20;;;1.20;;
78489;SDS011;67776;52.012;4.736;2023-09-18T15:01:44;3.83;;;1.20;;